sensor_id;sensor_type;location;lat;lon;timestamp;P1;durP1;ratioP1;P2;durP2;ratioP2
22172;SDS011;11252;50.596;17.648;2023-09-19T00:00:16;1.15;;;1.05;;
22172;SDS011;11252;50.596;17.648;2023-09-19T00:02:46;0.95;;;0.95;;
22172;SDS011;11252;50.596;17.648;2023-09-19T00:05:23;1.15;;;1.13;;
22172;SDS011;11252;50.596;17.648;2023-09-19T00:07:54;1.02;;;0.93;;
22172;SDS011;11252;50.596;17.648;2023-09-19T00:10:25;4.72;;;1.30;;
22172;SDS011;11252;50.596;17.648;2023-09-19T00:12:54;1.20;;;1.10;;
22172;SDS011;11252;50.596;17.648;2023-09-19T00:15:24;1.40;;;0.90;;
22172;SDS011;11252;50.596;17.648;2023-09-19T00:17:55;1.33;;;1.23;;
22172;SDS011;11252;50.596;17.648;2023-09-19T00:20:23;1.45;;;0.60;;
22172;SDS011;11252;50.596;17.648;2023-09-19T00:22:50;0.60;;;0.60;;
22172;SDS011;11252;50.596;17.648;2023-09-19T00:25:20;1.50;;;1.38;;
22172;SDS011;11252;50.596;17.648;2023-09-19T00:27:47;1.33;;;1.23;;
22172;SDS011;11252;50.596;17.648;2023-09-19T00:30:18;0.55;;;0.50;;
22172;SDS011;11252;50.596;17.648;2023-09-19T00:32:48;1.45;;;1.10;;
22172;SDS011;11252;50.596;17.648;2023-09-19T00:35:21;1.50;;;1.40;;
22172;SDS011;11252;50.596;17.648;2023-09-19T00:37:51;1.23;;;1.17;;
22172;SDS011;11252;50.596;17.648;2023-09-19T00:40:19;1.17;;;1.08;;
22172;SDS011;11252;50.596;17.648;2023-09-19T00:42:48;0.98;;;0.47;;
22172;SDS011;11252;50.596;17.648;2023-09-19T00:45:16;3.35;;;1.23;;
22172;SDS011;11252;50.596;17.648;2023-09-19T00:47:48;0.90;;;0.90;;
22172;SDS011;11252;50.596;17.648;2023-09-19T00:50:17;2.13;;;1.17;;
22172;SDS011;11252;50.596;17.648;2023-09-19T00:52:49;0.82;;;0.82;;
22172;SDS011;11252;50.596;17.648;2023-09-19T00:55:19;0.90;;;0.90;;
22172;SDS011;11252;50.596;17.648;2023-09-19T00:57:46;0.70;;;0.70;;
22172;SDS011;11252;50.596;17.648;2023-09-19T01:00:16;1.10;;;0.68;;
22172;SDS011;11252;50.596;17.648;2023-09-19T01:02:46;1.48;;;1.10;;
22172;SDS011;11252;50.596;17.648;2023-09-19T01:05:14;4.30;;;1.75;;
22172;SDS011;11252;50.596;17.648;2023-09-19T01:07:42;6.47;;;2.45;;
22172;SDS011;11252;50.596;17.648;2023-09-19T01:10:11;1.38;;;1.25;;
22172;SDS011;11252;50.596;17.648;2023-09-19T01:21:21;2.27;;;1.07;;
22172;SDS011;11252;50.596;17.648;2023-09-19T01:29:17;1.37;;;1.33;;
22172;SDS011;11252;50.596;17.648;2023-09-19T01:31:57;0.65;;;0.65;;
22172;SDS011;11252;50.596;17.648;2023-09-19T01:37:16;1.85;;;0.65;;
22172;SDS011;11252;50.596;17.648;2023-09-19T01:39:47;1.33;;;1.23;;
22172;SDS011;11252;50.596;17.648;2023-09-19T01:42:31;0.98;;;0.98;;
22172;SDS011;11252;50.596;17.648;2023-09-19T01:45:11;2.20;;;1.02;;
22172;SDS011;11252;50.596;17.648;2023-09-19T01:47:49;1.08;;;1.08;;
22172;SDS011;11252;50.596;17.648;2023-09-19T01:50:34;2.97;;;2.00;;
22172;SDS011;11252;50.596;17.648;2023-09-19T01:53:17;1.88;;;1.73;;
22172;SDS011;11252;50.596;17.648;2023-09-19T01:55:51;1.67;;;1.57;;
22172;SDS011;11252;50.596;17.648;2023-09-19T01:58:26;0.98;;;0.93;;
22172;SDS011;11252;50.596;17.648;2023-09-19T02:00:59;1.30;;;0.93;;
22172;SDS011;11252;50.596;17.648;2023-09-19T02:03:27;3.05;;;1.48;;
22172;SDS011;11252;50.596;17.648;2023-09-19T02:05:55;2.17;;;1.23;;
22172;SDS011;11252;50.596;17.648;2023-09-19T02:08:22;3.35;;;1.58;;
22172;SDS011;11252;50.596;17.648;2023-09-19T02:10:52;1.73;;;0.60;;
22172;SDS011;11252;50.596;17.648;2023-09-19T02:13:20;0.40;;;0.40;;
22172;SDS011;11252;50.596;17.648;2023-09-19T02:15:48;0.47;;;0.30;;
22172;SDS011;11252;50.596;17.648;2023-09-19T02:18:15;0.90;;;0.43;;
22172;SDS011;11252;50.596;17.648;2023-09-19T02:20:43;0.30;;;0.20;;
22172;SDS011;11252;50.596;17.648;2023-09-19T02:23:11;1.20;;;0.63;;
22172;SDS011;11252;50.596;17.648;2023-09-19T02:25:39;1.03;;;0.57;;
22172;SDS011;11252;50.596;17.648;2023-09-19T02:28:06;0.70;;;0.50;;
22172;SDS011;11252;50.596;17.648;2023-09-19T02:30:35;0.20;;;0.20;;
22172;SDS011;11252;50.596;17.648;2023-09-19T02:33:03;0.20;;;0.20;;
22172;SDS011;11252;50.596;17.648;2023-09-19T02:35:30;0.77;;;0.30;;
22172;SDS011;11252;50.596;17.648;2023-09-19T02:38:02;0.57;;;0.50;;
22172;SDS011;11252;50.596;17.648;2023-09-19T02:40:33;0.20;;;0.20;;
22172;SDS011;11252;50.596;17.648;2023-09-19T02:43:02;0.22;;;0.13;;
22172;SDS011;11252;50.596;17.648;2023-09-19T02:45:29;0.10;;;0.10;;
22172;SDS011;11252;50.596;17.648;2023-09-19T02:47:57;0.00;;;0.00;;
22172;SDS011;11252;50.596;17.648;2023-09-19T02:50:24;0.20;;;0.20;;
22172;SDS011;11252;50.596;17.648;2023-09-19T02:52:51;0.25;;;0.25;;
22172;SDS011;11252;50.596;17.648;2023-09-19T02:55:18;0.10;;;0.10;;
22172;SDS011;11252;50.596;17.648;2023-09-19T02:57:49;1.45;;;0.17;;
22172;SDS011;11252;50.596;17.648;2023-09-19T03:00:17;0.05;;;0.05;;
22172;SDS011;11252;50.596;17.648;2023-09-19T03:02:49;0.70;;;0.32;;
22172;SDS011;11252;50.596;17.648;2023-09-19T03:05:18;0.00;;;0.00;;
22172;SDS011;11252;50.596;17.648;2023-09-19T03:07:46;0.03;;;0.03;;
22172;SDS011;11252;50.596;17.648;2023-09-19T03:10:20;0.08;;;0.08;;
22172;SDS011;11252;50.596;17.648;2023-09-19T03:12:48;0.00;;;0.00;;
22172;SDS011;11252;50.596;17.648;2023-09-19T03:15:16;0.17;;;0.10;;
22172;SDS011;11252;50.596;17.648;2023-09-19T03:17:45;0.13;;;0.13;;
22172;SDS011;11252;50.596;17.648;2023-09-19T03:20:14;0.40;;;0.40;;
22172;SDS011;11252;50.596;17.648;2023-09-19T03:22:44;0.10;;;0.10;;
22172;SDS011;11252;50.596;17.648;2023-09-19T03:25:12;0.00;;;0.00;;
22172;SDS011;11252;50.596;17.648;2023-09-19T03:27:40;1.07;;;0.40;;
22172;SDS011;11252;50.596;17.648;2023-09-19T03:30:07;0.30;;;0.30;;
22172;SDS011;11252;50.596;17.648;2023-09-19T03:32:35;0.00;;;0.00;;
22172;SDS011;11252;50.596;17.648;2023-09-19T03:35:03;0.00;;;0.00;;
22172;SDS011;11252;50.596;17.648;2023-09-19T03:37:33;0.53;;;0.53;;
22172;SDS011;11252;50.596;17.648;2023-09-19T03:40:00;0.00;;;0.00;;
22172;SDS011;11252;50.596;17.648;2023-09-19T03:42:34;0.40;;;0.40;;
22172;SDS011;11252;50.596;17.648;2023-09-19T03:45:04;0.10;;;0.10;;
22172;SDS011;11252;50.596;17.648;2023-09-19T03:47:33;0.27;;;0.10;;
22172;SDS011;11252;50.596;17.648;2023-09-19T03:49:59;0.00;;;0.00;;
22172;SDS011;11252;50.596;17.648;2023-09-19T03:52:26;0.03;;;0.03;;
22172;SDS011;11252;50.596;17.648;2023-09-19T03:54:53;0.53;;;0.27;;
22172;SDS011;11252;50.596;17.648;2023-09-19T03:57:20;0.50;;;0.50;;
22172;SDS011;11252;50.596;17.648;2023-09-19T03:59:47;0.43;;;0.40;;
22172;SDS011;11252;50.596;17.648;2023-09-19T04:02:14;0.00;;;0.00;;
22172;SDS011;11252;50.596;17.648;2023-09-19T04:04:49;0.10;;;0.10;;
22172;SDS011;11252;50.596;17.648;2023-09-19T04:07:17;0.07;;;0.07;;
22172;SDS011;11252;50.596;17.648;2023-09-19T04:09:49;4.63;;;0.53;;
22172;SDS011;11252;50.596;17.648;2023-09-19T04:12:16;1.03;;;0.50;;
22172;SDS011;11252;50.596;17.648;2023-09-19T04:14:43;0.10;;;0.10;;
22172;SDS011;11252;50.596;17.648;2023-09-19T04:17:10;0.00;;;0.00;;
22172;SDS011;11252;50.596;17.648;2023-09-19T04:19:37;0.20;;;0.20;;
22172;SDS011;11252;50.596;17.648;2023-09-19T04:22:04;0.10;;;0.10;;
22172;SDS011;11252;50.596;17.648;2023-09-19T04:24:31;0.00;;;0.00;;
22172;SDS011;11252;50.596;17.648;2023-09-19T04:26:58;1.30;;;0.83;;
22172;SDS011;11252;50.596;17.648;2023-09-19T04:29:25;0.05;;;0.05;;
22172;SDS011;11252;50.596;17.648;2023-09-19T04:31:56;0.30;;;0.23;;
22172;SDS011;11252;50.596;17.648;2023-09-19T04:34:23;0.53;;;0.20;;
22172;SDS011;11252;50.596;17.648;2023-09-19T04:36:50;0.00;;;0.00;;
22172;SDS011;11252;50.596;17.648;2023-09-19T04:39:19;0.10;;;0.10;;
22172;SDS011;11252;50.596;17.648;2023-09-19T04:41:47;0.13;;;0.13;;
22172;SDS011;11252;50.596;17.648;2023-09-19T04:44:14;0.10;;;0.10;;
22172;SDS011;11252;50.596;17.648;2023-09-19T04:46:42;0.00;;;0.00;;
22172;SDS011;11252;50.596;17.648;2023-09-19T04:49:09;0.00;;;0.00;;
22172;SDS011;11252;50.596;17.648;2023-09-19T04:51:36;0.00;;;0.00;;
22172;SDS011;11252;50.596;17.648;2023-09-19T04:54:03;0.43;;;0.40;;
22172;SDS011;11252;50.596;17.648;2023-09-19T04:56:30;0.47;;;0.47;;
22172;SDS011;11252;50.596;17.648;2023-09-19T04:58:58;0.30;;;0.30;;
22172;SDS011;11252;50.596;17.648;2023-09-19T05:01:29;0.00;;;0.00;;
22172;SDS011;11252;50.596;17.648;2023-09-19T05:03:56;0.00;;;0.00;;
22172;SDS011;11252;50.596;17.648;2023-09-19T05:06:23;0.00;;;0.00;;
22172;SDS011;11252;50.596;17.648;2023-09-19T05:08:50;3.43;;;1.20;;
22172;SDS011;11252;50.596;17.648;2023-09-19T05:11:19;0.20;;;0.20;;
22172;SDS011;11252;50.596;17.648;2023-09-19T05:13:51;0.30;;;0.30;;
22172;SDS011;11252;50.596;17.648;2023-09-19T05:16:20;0.23;;;0.23;;
22172;SDS011;11252;50.596;17.648;2023-09-19T05:18:47;0.60;;;0.20;;
22172;SDS011;11252;50.596;17.648;2023-09-19T05:21:13;0.03;;;0.03;;
22172;SDS011;11252;50.596;17.648;2023-09-19T05:23:40;0.00;;;0.00;;
22172;SDS011;11252;50.596;17.648;2023-09-19T05:26:08;0.00;;;0.00;;
22172;SDS011;11252;50.596;17.648;2023-09-19T05:28:37;3.70;;;0.43;;
22172;SDS011;11252;50.596;17.648;2023-09-19T05:31:04;0.43;;;0.43;;
22172;SDS011;11252;50.596;17.648;2023-09-19T05:33:31;0.10;;;0.10;;
22172;SDS011;11252;50.596;17.648;2023-09-19T05:35:59;0.00;;;0.00;;
22172;SDS011;11252;50.596;17.648;2023-09-19T05:38:29;0.30;;;0.20;;
22172;SDS011;11252;50.596;17.648;2023-09-19T05:40:57;0.47;;;0.40;;
22172;SDS011;11252;50.596;17.648;2023-09-19T05:43:24;0.07;;;0.07;;
22172;SDS011;11252;50.596;17.648;2023-09-19T05:45:51;0.43;;;0.43;;
22172;SDS011;11252;50.596;17.648;2023-09-19T05:48:18;0.10;;;0.10;;
22172;SDS011;11252;50.596;17.648;2023-09-19T05:50:47;0.10;;;0.10;;
22172;SDS011;11252;50.596;17.648;2023-09-19T05:53:17;0.10;;;0.10;;
22172;SDS011;11252;50.596;17.648;2023-09-19T05:55:45;0.07;;;0.07;;
22172;SDS011;11252;50.596;17.648;2023-09-19T05:58:12;0.00;;;0.00;;
22172;SDS011;11252;50.596;17.648;2023-09-19T06:00:44;0.10;;;0.10;;
22172;SDS011;11252;50.596;17.648;2023-09-19T06:03:13;0.37;;;0.37;;
22172;SDS011;11252;50.596;17.648;2023-09-19T06:05:43;1.70;;;0.80;;
22172;SDS011;11252;50.596;17.648;2023-09-19T06:08:12;0.00;;;0.00;;
22172;SDS011;11252;50.596;17.648;2023-09-19T06:10:39;0.10;;;0.10;;
22172;SDS011;11252;50.596;17.648;2023-09-19T06:13:06;0.13;;;0.13;;
22172;SDS011;11252;50.596;17.648;2023-09-19T06:15:36;1.17;;;0.60;;
22172;SDS011;11252;50.596;17.648;2023-09-19T06:18:03;0.50;;;0.33;;
22172;SDS011;11252;50.596;17.648;2023-09-19T06:20:31;0.23;;;0.23;;
22172;SDS011;11252;50.596;17.648;2023-09-19T06:22:59;0.07;;;0.07;;
22172;SDS011;11252;50.596;17.648;2023-09-19T06:25:30;0.20;;;0.20;;
22172;SDS011;11252;50.596;17.648;2023-09-19T06:27:57;0.47;;;0.27;;
22172;SDS011;11252;50.596;17.648;2023-09-19T06:30:24;0.20;;;0.20;;
22172;SDS011;11252;50.596;17.648;2023-09-19T06:32:55;0.57;;;0.40;;
22172;SDS011;11252;50.596;17.648;2023-09-19T06:35:23;0.30;;;0.30;;
22172;SDS011;11252;50.596;17.648;2023-09-19T06:37:53;0.43;;;0.20;;
22172;SDS011;11252;50.596;17.648;2023-09-19T06:40:27;0.40;;;0.40;;
22172;SDS011;11252;50.596;17.648;2023-09-19T06:42:54;0.30;;;0.30;;
22172;SDS011;11252;50.596;17.648;2023-09-19T06:45:25;0.10;;;0.10;;
22172;SDS011;11252;50.596;17.648;2023-09-19T06:47:53;0.00;;;0.00;;
22172;SDS011;11252;50.596;17.648;2023-09-19T06:50:25;0.23;;;0.13;;
22172;SDS011;11252;50.596;17.648;2023-09-19T06:52:55;0.50;;;0.30;;
22172;SDS011;11252;50.596;17.648;2023-09-19T06:55:25;0.10;;;0.10;;
22172;SDS011;11252;50.596;17.648;2023-09-19T06:58:00;0.20;;;0.20;;
22172;SDS011;11252;50.596;17.648;2023-09-19T07:00:28;0.10;;;0.10;;
22172;SDS011;11252;50.596;17.648;2023-09-19T07:03:07;0.47;;;0.47;;
22172;SDS011;11252;50.596;17.648;2023-09-19T07:05:38;0.50;;;0.50;;
22172;SDS011;11252;50.596;17.648;2023-09-19T07:08:09;9.20;;;0.40;;
22172;SDS011;11252;50.596;17.648;2023-09-19T07:10:39;0.20;;;0.20;;
22172;SDS011;11252;50.596;17.648;2023-09-19T07:13:08;0.17;;;0.17;;
22172;SDS011;11252;50.596;17.648;2023-09-19T07:15:37;1.03;;;0.30;;
22172;SDS011;11252;50.596;17.648;2023-09-19T07:18:08;0.30;;;0.30;;
22172;SDS011;11252;50.596;17.648;2023-09-19T07:20:37;0.00;;;0.00;;
22172;SDS011;11252;50.596;17.648;2023-09-19T07:23:05;0.77;;;0.53;;
22172;SDS011;11252;50.596;17.648;2023-09-19T07:25:32;0.37;;;0.20;;
22172;SDS011;11252;50.596;17.648;2023-09-19T07:28:02;0.10;;;0.10;;
22172;SDS011;11252;50.596;17.648;2023-09-19T07:30:29;0.57;;;0.50;;
22172;SDS011;11252;50.596;17.648;2023-09-19T07:32:56;0.00;;;0.00;;
22172;SDS011;11252;50.596;17.648;2023-09-19T07:35:23;0.20;;;0.20;;
22172;SDS011;11252;50.596;17.648;2023-09-19T07:37:52;0.27;;;0.27;;
22172;SDS011;11252;50.596;17.648;2023-09-19T07:40:19;0.50;;;0.50;;
22172;SDS011;11252;50.596;17.648;2023-09-19T07:42:50;0.23;;;0.23;;
22172;SDS011;11252;50.596;17.648;2023-09-19T07:45:17;0.30;;;0.30;;
22172;SDS011;11252;50.596;17.648;2023-09-19T07:47:44;7.00;;;0.73;;
22172;SDS011;11252;50.596;17.648;2023-09-19T07:50:18;0.33;;;0.33;;
22172;SDS011;11252;50.596;17.648;2023-09-19T07:52:46;0.03;;;0.03;;
22172;SDS011;11252;50.596;17.648;2023-09-19T07:55:14;0.40;;;0.40;;
22172;SDS011;11252;50.596;17.648;2023-09-19T07:57:46;0.63;;;0.43;;
22172;SDS011;11252;50.596;17.648;2023-09-19T08:00:13;0.10;;;0.10;;
22172;SDS011;11252;50.596;17.648;2023-09-19T08:02:42;0.63;;;0.63;;
22172;SDS011;11252;50.596;17.648;2023-09-19T08:05:11;3.80;;;1.00;;
22172;SDS011;11252;50.596;17.648;2023-09-19T08:07:42;0.30;;;0.30;;
22172;SDS011;11252;50.596;17.648;2023-09-19T08:10:12;0.10;;;0.10;;
22172;SDS011;11252;50.596;17.648;2023-09-19T08:12:39;0.37;;;0.37;;
22172;SDS011;11252;50.596;17.648;2023-09-19T08:15:16;0.23;;;0.23;;
22172;SDS011;11252;50.596;17.648;2023-09-19T08:17:47;0.50;;;0.37;;
22172;SDS011;11252;50.596;17.648;2023-09-19T08:20:15;0.20;;;0.20;;
22172;SDS011;11252;50.596;17.648;2023-09-19T08:22:49;0.57;;;0.40;;
22172;SDS011;11252;50.596;17.648;2023-09-19T08:25:19;0.20;;;0.20;;
22172;SDS011;11252;50.596;17.648;2023-09-19T08:27:46;0.20;;;0.20;;
22172;SDS011;11252;50.596;17.648;2023-09-19T08:30:15;0.23;;;0.23;;
22172;SDS011;11252;50.596;17.648;2023-09-19T08:32:57;2.10;;;0.33;;
22172;SDS011;11252;50.596;17.648;2023-09-19T08:35:25;0.30;;;0.30;;
22172;SDS011;11252;50.596;17.648;2023-09-19T08:38:02;0.30;;;0.30;;
22172;SDS011;11252;50.596;17.648;2023-09-19T08:40:30;0.40;;;0.40;;
22172;SDS011;11252;50.596;17.648;2023-09-19T08:43:00;1.13;;;0.63;;
22172;SDS011;11252;50.596;17.648;2023-09-19T08:45:27;0.07;;;0.07;;
22172;SDS011;11252;50.596;17.648;2023-09-19T08:51:06;0.10;;;0.10;;
22172;SDS011;11252;50.596;17.648;2023-09-19T08:56:18;0.23;;;0.23;;
22172;SDS011;11252;50.596;17.648;2023-09-19T08:58:59;0.43;;;0.43;;
22172;SDS011;11252;50.596;17.648;2023-09-19T09:01:31;0.10;;;0.10;;
22172;SDS011;11252;50.596;17.648;2023-09-19T09:03:59;0.40;;;0.40;;
22172;SDS011;11252;50.596;17.648;2023-09-19T09:06:29;0.10;;;0.10;;
22172;SDS011;11252;50.596;17.648;2023-09-19T09:08:56;0.20;;;0.20;;
22172;SDS011;11252;50.596;17.648;2023-09-19T09:11:23;0.17;;;0.17;;
22172;SDS011;11252;50.596;17.648;2023-09-19T09:13:51;2.50;;;0.90;;
22172;SDS011;11252;50.596;17.648;2023-09-19T09:16:18;0.30;;;0.30;;
22172;SDS011;11252;50.596;17.648;2023-09-19T09:18:46;0.20;;;0.10;;
22172;SDS011;11252;50.596;17.648;2023-09-19T09:21:20;0.10;;;0.10;;
22172;SDS011;11252;50.596;17.648;2023-09-19T09:23:49;0.20;;;0.20;;
22172;SDS011;11252;50.596;17.648;2023-09-19T09:29:05;0.60;;;0.60;;
22172;SDS011;11252;50.596;17.648;2023-09-19T09:31:32;0.00;;;0.00;;
22172;SDS011;11252;50.596;17.648;2023-09-19T09:33:59;0.30;;;0.30;;
22172;SDS011;11252;50.596;17.648;2023-09-19T09:36:39;0.35;;;0.35;;
22172;SDS011;11252;50.596;17.648;2023-09-19T09:39:08;0.30;;;0.30;;
22172;SDS011;11252;50.596;17.648;2023-09-19T09:41:45;0.32;;;0.32;;
22172;SDS011;11252;50.596;17.648;2023-09-19T09:44:14;0.30;;;0.30;;
22172;SDS011;11252;50.596;17.648;2023-09-19T09:46:48;0.10;;;0.10;;
22172;SDS011;11252;50.596;17.648;2023-09-19T09:49:25;0.10;;;0.10;;
22172;SDS011;11252;50.596;17.648;2023-09-19T09:54:37;0.00;;;0.00;;
22172;SDS011;11252;50.596;17.648;2023-09-19T09:57:05;0.20;;;0.20;;
22172;SDS011;11252;50.596;17.648;2023-09-19T09:59:52;0.30;;;0.30;;
22172;SDS011;11252;50.596;17.648;2023-09-19T10:02:25;0.10;;;0.10;;
22172;SDS011;11252;50.596;17.648;2023-09-19T10:04:59;0.77;;;0.30;;
22172;SDS011;11252;50.596;17.648;2023-09-19T10:08:11;1.15;;;0.70;;
22172;SDS011;11252;50.596;17.648;2023-09-19T10:10:40;0.03;;;0.03;;
22172;SDS011;11252;50.596;17.648;2023-09-19T10:13:10;0.00;;;0.00;;
22172;SDS011;11252;50.596;17.648;2023-09-19T10:15:42;0.43;;;0.43;;
22172;SDS011;11252;50.596;17.648;2023-09-19T10:18:22;0.85;;;0.82;;
22172;SDS011;11252;50.596;17.648;2023-09-19T10:20:51;0.32;;;0.32;;
22172;SDS011;11252;50.596;17.648;2023-09-19T10:23:20;0.00;;;0.00;;
22172;SDS011;11252;50.596;17.648;2023-09-19T10:25:53;0.30;;;0.30;;
22172;SDS011;11252;50.596;17.648;2023-09-19T10:28:21;0.15;;;0.15;;
22172;SDS011;11252;50.596;17.648;2023-09-19T10:30:50;0.08;;;0.08;;
22172;SDS011;11252;50.596;17.648;2023-09-19T10:33:19;0.25;;;0.25;;
22172;SDS011;11252;50.596;17.648;2023-09-19T10:35:49;0.20;;;0.20;;
22172;SDS011;11252;50.596;17.648;2023-09-19T10:38:18;5.82;;;1.27;;
22172;SDS011;11252;50.596;17.648;2023-09-19T10:40:49;0.10;;;0.10;;
22172;SDS011;11252;50.596;17.648;2023-09-19T10:43:18;0.10;;;0.10;;
22172;SDS011;11252;50.596;17.648;2023-09-19T10:45:48;0.20;;;0.20;;
22172;SDS011;11252;50.596;17.648;2023-09-19T10:48:19;0.47;;;0.30;;
22172;SDS011;11252;50.596;17.648;2023-09-19T10:50:56;0.00;;;0.00;;
22172;SDS011;11252;50.596;17.648;2023-09-19T10:53:55;0.00;;;0.00;;
22172;SDS011;11252;50.596;17.648;2023-09-19T10:57:04;0.98;;;0.50;;
22172;SDS011;11252;50.596;17.648;2023-09-19T10:59:18;10.23;;;0.63;;
22172;SDS011;11252;50.596;17.648;2023-09-19T11:04:32;0.05;;;0.05;;
22172;SDS011;11252;50.596;17.648;2023-09-19T11:14:58;0.00;;;0.00;;
22172;SDS011;11252;50.596;17.648;2023-09-19T11:17:32;0.20;;;0.20;;
22172;SDS011;11252;50.596;17.648;2023-09-19T11:28:27;0.00;;;0.00;;
22172;SDS011;11252;50.596;17.648;2023-09-19T11:30:54;0.00;;;0.00;;
22172;SDS011;11252;50.596;17.648;2023-09-19T11:33:29;0.17;;;0.17;;
22172;SDS011;11252;50.596;17.648;2023-09-19T11:49:26;0.00;;;0.00;;
22172;SDS011;11252;50.596;17.648;2023-09-19T11:51:58;0.22;;;0.17;;
22172;SDS011;11252;50.596;17.648;2023-09-19T11:54:35;0.28;;;0.28;;
22172;SDS011;11252;50.596;17.648;2023-09-19T11:57:06;0.28;;;0.28;;
22172;SDS011;11252;50.596;17.648;2023-09-19T11:59:38;0.08;;;0.08;;
22172;SDS011;11252;50.596;17.648;2023-09-19T12:02:06;0.52;;;0.40;;
22172;SDS011;11252;50.596;17.648;2023-09-19T12:04:36;0.20;;;0.20;;
22172;SDS011;11252;50.596;17.648;2023-09-19T12:07:10;0.00;;;0.00;;
22172;SDS011;11252;50.596;17.648;2023-09-19T12:09:43;0.50;;;0.50;;
22172;SDS011;11252;50.596;17.648;2023-09-19T12:12:10;0.35;;;0.35;;
22172;SDS011;11252;50.596;17.648;2023-09-19T12:14:47;0.10;;;0.10;;
22172;SDS011;11252;50.596;17.648;2023-09-19T12:17:17;0.50;;;0.50;;
22172;SDS011;11252;50.596;17.648;2023-09-19T12:19:55;0.00;;;0.00;;
22172;SDS011;11252;50.596;17.648;2023-09-19T12:22:38;0.40;;;0.35;;
22172;SDS011;11252;50.596;17.648;2023-09-19T12:25:14;0.10;;;0.10;;
22172;SDS011;11252;50.596;17.648;2023-09-19T12:30:15;0.37;;;0.37;;
22172;SDS011;11252;50.596;17.648;2023-09-19T12:32:53;0.30;;;0.30;;
22172;SDS011;11252;50.596;17.648;2023-09-19T12:38:02;0.00;;;0.00;;
22172;SDS011;11252;50.596;17.648;2023-09-19T12:40:30;0.63;;;0.63;;
22172;SDS011;11252;50.596;17.648;2023-09-19T12:43:00;1.07;;;0.70;;
22172;SDS011;11252;50.596;17.648;2023-09-19T12:45:31;0.70;;;0.53;;
22172;SDS011;11252;50.596;17.648;2023-09-19T12:51:08;0.27;;;0.27;;
22172;SDS011;11252;50.596;17.648;2023-09-19T12:53:40;0.00;;;0.00;;
22172;SDS011;11252;50.596;17.648;2023-09-19T12:56:23;0.20;;;0.20;;
22172;SDS011;11252;50.596;17.648;2023-09-19T12:58:54;0.13;;;0.13;;
22172;SDS011;11252;50.596;17.648;2023-09-19T13:01:23;0.33;;;0.33;;
22172;SDS011;11252;50.596;17.648;2023-09-19T13:04:11;0.10;;;0.10;;
22172;SDS011;11252;50.596;17.648;2023-09-19T13:06:56;0.83;;;0.67;;
22172;SDS011;11252;50.596;17.648;2023-09-19T13:09:27;0.07;;;0.07;;
22172;SDS011;11252;50.596;17.648;2023-09-19T13:12:01;1.13;;;0.40;;
22172;SDS011;11252;50.596;17.648;2023-09-19T13:14:29;0.00;;;0.00;;
22172;SDS011;11252;50.596;17.648;2023-09-19T13:17:07;0.27;;;0.27;;
22172;SDS011;11252;50.596;17.648;2023-09-19T13:19:49;0.17;;;0.17;;
22172;SDS011;11252;50.596;17.648;2023-09-19T13:22:40;0.13;;;0.13;;
22172;SDS011;11252;50.596;17.648;2023-09-19T13:25:16;0.13;;;0.13;;
22172;SDS011;11252;50.596;17.648;2023-09-19T13:27:47;0.87;;;0.30;;
22172;SDS011;11252;50.596;17.648;2023-09-19T13:30:18;0.27;;;0.27;;
22172;SDS011;11252;50.596;17.648;2023-09-19T13:32:45;0.30;;;0.30;;
22172;SDS011;11252;50.596;17.648;2023-09-19T13:35:15;0.00;;;0.00;;
22172;SDS011;11252;50.596;17.648;2023-09-19T13:37:43;3.60;;;0.50;;
22172;SDS011;11252;50.596;17.648;2023-09-19T13:40:13;0.10;;;0.10;;
22172;SDS011;11252;50.596;17.648;2023-09-19T13:42:42;0.30;;;0.30;;
22172;SDS011;11252;50.596;17.648;2023-09-19T13:45:09;0.30;;;0.27;;
22172;SDS011;11252;50.596;17.648;2023-09-19T13:47:39;0.47;;;0.47;;
22172;SDS011;11252;50.596;17.648;2023-09-19T13:50:07;0.20;;;0.10;;
22172;SDS011;11252;50.596;17.648;2023-09-19T13:52:35;0.28;;;0.17;;
22172;SDS011;11252;50.596;17.648;2023-09-19T13:55:02;0.50;;;0.43;;
22172;SDS011;11252;50.596;17.648;2023-09-19T13:57:30;0.20;;;0.20;;
22172;SDS011;11252;50.596;17.648;2023-09-19T13:59:57;0.20;;;0.20;;
22172;SDS011;11252;50.596;17.648;2023-09-19T14:02:24;0.00;;;0.00;;
22172;SDS011;11252;50.596;17.648;2023-09-19T14:04:56;0.00;;;0.00;;
22172;SDS011;11252;50.596;17.648;2023-09-19T14:07:24;0.40;;;0.40;;
22172;SDS011;11252;50.596;17.648;2023-09-19T14:09:51;0.25;;;0.20;;
22172;SDS011;11252;50.596;17.648;2023-09-19T14:12:19;2.47;;;1.08;;
22172;SDS011;11252;50.596;17.648;2023-09-19T14:14:47;0.20;;;0.10;;
22172;SDS011;11252;50.596;17.648;2023-09-19T14:17:17;0.20;;;0.20;;
22172;SDS011;11252;50.596;17.648;2023-09-19T14:19:45;0.63;;;0.50;;
22172;SDS011;11252;50.596;17.648;2023-09-19T14:22:13;3.55;;;1.13;;
22172;SDS011;11252;50.596;17.648;2023-09-19T14:24:40;0.10;;;0.10;;
22172;SDS011;11252;50.596;17.648;2023-09-19T14:27:07;0.38;;;0.38;;
22172;SDS011;11252;50.596;17.648;2023-09-19T14:29:36;0.20;;;0.20;;
22172;SDS011;11252;50.596;17.648;2023-09-19T14:32:03;0.17;;;0.17;;
22172;SDS011;11252;50.596;17.648;2023-09-19T14:34:31;0.05;;;0.05;;
22172;SDS011;11252;50.596;17.648;2023-09-19T14:36:59;0.10;;;0.10;;
22172;SDS011;11252;50.596;17.648;2023-09-19T14:39:27;0.10;;;0.10;;
22172;SDS011;11252;50.596;17.648;2023-09-19T14:41:54;0.40;;;0.40;;
22172;SDS011;11252;50.596;17.648;2023-09-19T14:44:21;0.10;;;0.10;;
22172;SDS011;11252;50.596;17.648;2023-09-19T14:46:49;0.35;;;0.35;;
22172;SDS011;11252;50.596;17.648;2023-09-19T14:49:16;0.22;;;0.22;;
22172;SDS011;11252;50.596;17.648;2023-09-19T14:51:46;0.10;;;0.10;;
22172;SDS011;11252;50.596;17.648;2023-09-19T14:54:19;0.10;;;0.10;;
22172;SDS011;11252;50.596;17.648;2023-09-19T14:56:47;0.20;;;0.20;;
22172;SDS011;11252;50.596;17.648;2023-09-19T14:59:20;0.10;;;0.10;;
22172;SDS011;11252;50.596;17.648;2023-09-19T15:01:47;0.00;;;0.00;;
22172;SDS011;11252;50.596;17.648;2023-09-19T15:04:16;0.17;;;0.17;;
22172;SDS011;11252;50.596;17.648;2023-09-19T15:06:44;0.10;;;0.10;;
22172;SDS011;11252;50.596;17.648;2023-09-19T15:09:12;0.22;;;0.22;;
22172;SDS011;11252;50.596;17.648;2023-09-19T15:11:39;0.00;;;0.00;;
22172;SDS011;11252;50.596;17.648;2023-09-19T15:14:06;0.10;;;0.10;;
22172;SDS011;11252;50.596;17.648;2023-09-19T15:16:33;0.08;;;0.08;;
22172;SDS011;11252;50.596;17.648;2023-09-19T15:19:00;0.70;;;0.55;;
22172;SDS011;11252;50.596;17.648;2023-09-19T15:21:27;0.30;;;0.30;;
22172;SDS011;11252;50.596;17.648;2023-09-19T15:23:54;4.80;;;0.85;;
22172;SDS011;11252;50.596;17.648;2023-09-19T15:26:21;2.78;;;0.55;;
22172;SDS011;11252;50.596;17.648;2023-09-19T15:28:49;0.10;;;0.10;;
22172;SDS011;11252;50.596;17.648;2023-09-19T15:31:16;0.25;;;0.22;;
22172;SDS011;11252;50.596;17.648;2023-09-19T15:33:43;0.43;;;0.43;;
22172;SDS011;11252;50.596;17.648;2023-09-19T15:36:11;0.50;;;0.28;;
22172;SDS011;11252;50.596;17.648;2023-09-19T15:41:34;0.30;;;0.30;;
22172;SDS011;11252;50.596;17.648;2023-09-19T15:44:16;0.77;;;0.68;;
22172;SDS011;11252;50.596;17.648;2023-09-19T15:46:44;0.10;;;0.10;;
22172;SDS011;11252;50.596;17.648;2023-09-19T15:49:12;0.20;;;0.20;;
22172;SDS011;11252;50.596;17.648;2023-09-19T15:51:39;0.20;;;0.20;;
22172;SDS011;11252;50.596;17.648;2023-09-19T15:54:07;0.10;;;0.10;;
22172;SDS011;11252;50.596;17.648;2023-09-19T15:56:42;0.20;;;0.20;;
22172;SDS011;11252;50.596;17.648;2023-09-19T15:59:10;0.55;;;0.45;;
22172;SDS011;11252;50.596;17.648;2023-09-19T16:01:40;0.87;;;0.33;;